Time;durP1;ratioP1;P1;durP2;ratioP2;P2;SDS_P1;SDS_P2;PMS_P1;PMS_P2;Temp;Humidity;BMP_temperature;BMP_pressure;BME280_temperature;BME280_humidity;BME280_pressure;Samples;Min_cycle;Max_cycle;Signal;HPM_P1;HPM_P2
2023/05/23 00:00:57;;;;;;;21.40;13.30;;;;;;;-128.00;-1.00;-1.00;105683;1253;1004164;-79
2023/05/23 00:03:27;;;;;;;24.00;14.20;;;;;;;-128.00;-1.00;-1.00;105742;1254;1004143;-79
2023/05/23 00:05:55;;;;;;;22.30;13.70;;;;;;;-128.00;-1.00;-1.00;105666;1253;1047572;-79
2023/05/23 00:08:21;;;;;;;19.80;12.90;;;;;;;-128.00;-1.00;-1.00;105497;1254;1004009;-79
2023/05/23 00:10:48;;;;;;;21.30;14.10;;;;;;;-128.00;-1.00;-1.00;105350;1254;1004992;-79
2023/05/23 00:13:14;;;;;;;17.60;11.60;;;;;;;-128.00;-1.00;-1.00;105436;1254;1004720;-77
2023/05/23 00:15:41;;;;;;;21.70;12.40;;;;;;;-128.00;-1.00;-1.00;105314;1253;1005188;-80
2023/05/23 00:18:09;;;;;;;20.90;12.40;;;;;;;-128.00;-1.00;-1.00;105329;1253;1004648;-78
2023/05/23 00:20:39;;;;;;;20.20;11.80;;;;;;;-128.00;-1.00;-1.00;105685;1253;1045779;-78
2023/05/23 00:23:07;;;;;;;19.60;11.70;;;;;;;-128.00;-1.00;-1.00;105696;1254;1061551;-77
2023/05/23 00:25:34;;;;;;;17.70;12.30;;;;;;;-128.00;-1.00;-1.00;105721;1254;1003991;-79
2023/05/23 00:28:01;;;;;;;24.20;12.60;;;;;;;-128.00;-1.00;-1.00;105522;1253;1004644;-77
2023/05/23 00:30:31;;;;;;;20.20;11.70;;;;;;;-128.00;-1.00;-1.00;105656;1253;1005028;-79
2023/05/23 00:32:59;;;;;;;21.90;12.40;;;;;;;-128.00;-1.00;-1.00;105569;1258;1049086;-79
2023/05/23 00:35:25;;;;;;;16.70;12.00;;;;;;;-128.00;-1.00;-1.00;105437;1254;1007143;-77
2023/05/23 00:37:51;;;;;;;17.40;11.70;;;;;;;-128.00;-1.00;-1.00;105716;1253;1004151;-77
2023/05/23 00:40:18;;;;;;;21.60;12.50;;;;;;;-128.00;-1.00;-1.00;105681;1253;1004814;-79
2023/05/23 00:42:45;;;;;;;15.50;10.40;;;;;;;-128.00;-1.00;-1.00;105635;1254;1004569;-77
2023/05/23 00:45:11;;;;;;;20.90;13.10;;;;;;;-128.00;-1.00;-1.00;105703;1253;1004117;-79
2023/05/23 00:47:41;;;;;;;18.60;11.90;;;;;;;-128.00;-1.00;-1.00;105667;1254;1004099;-79
2023/05/23 00:50:08;;;;;;;19.20;12.50;;;;;;;-128.00;-1.00;-1.00;105577;1254;1059079;-79
2023/05/23 00:52:34;;;;;;;18.60;11.60;;;;;;;-128.00;-1.00;-1.00;105661;1254;1004732;-77
2023/05/23 00:55:01;;;;;;;22.60;12.80;;;;;;;-128.00;-1.00;-1.00;105665;1253;1004422;-79
2023/05/23 00:57:27;;;;;;;17.00;11.20;;;;;;;-128.00;-1.00;-1.00;105470;1253;1003944;-76
2023/05/23 00:59:54;;;;;;;17.60;11.30;;;;;;;-128.00;-1.00;-1.00;105448;1253;1004607;-77
2023/05/23 01:02:20;;;;;;;23.40;13.70;;;;;;;-128.00;-1.00;-1.00;105417;1254;1003721;-79
2023/05/23 01:04:53;;;;;;;17.10;10.50;;;;;;;-128.00;-1.00;-1.00;105308;1253;1003764;-78
2023/05/23 01:07:20;;;;;;;16.30;11.40;;;;;;;-128.00;-1.00;-1.00;105318;1254;1046080;-77
2023/05/23 01:09:46;;;;;;;22.00;12.40;;;;;;;-128.00;-1.00;-1.00;105533;1254;1004621;-77
2023/05/23 01:12:19;;;;;;;21.00;12.00;;;;;;;-128.00;-1.00;-1.00;105457;1252;1003988;-77
2023/05/23 01:14:58;;;;;;;17.40;11.50;;;;;;;-128.00;-1.00;-1.00;105202;1254;1058876;-79
2023/05/23 01:17:46;;;;;;;14.80;11.10;;;;;;;-128.00;-1.00;-1.00;105417;1254;1058898;-79
2023/05/23 01:20:21;;;;;;;20.90;10.80;;;;;;;-128.00;-1.00;-1.00;105388;1254;1046666;-79
2023/05/23 01:23:01;;;;;;;16.60;10.90;;;;;;;-128.00;-1.00;-1.00;105325;1253;1046620;-77
2023/05/23 01:25:44;;;;;;;16.00;10.20;;;;;;;-128.00;-1.00;-1.00;105437;1256;1061841;-79
2023/05/23 01:28:14;;;;;;;13.50;9.40;;;;;;;-128.00;-1.00;-1.00;105434;1252;1057531;-77
2023/05/23 01:30:40;;;;;;;17.80;11.40;;;;;;;-128.00;-1.00;-1.00;105486;1254;1058943;-77
2023/05/23 01:33:07;;;;;;;15.40;11.00;;;;;;;-128.00;-1.00;-1.00;105323;1253;1004460;-76
2023/05/23 01:35:33;;;;;;;20.70;11.80;;;;;;;-128.00;-1.00;-1.00;105437;1253;1003939;-77
2023/05/23 01:38:00;;;;;;;19.20;12.10;;;;;;;-128.00;-1.00;-1.00;105454;1254;1004127;-77
2023/05/23 01:40:26;;;;;;;18.30;11.00;;;;;;;-128.00;-1.00;-1.00;105451;1254;1003875;-77
2023/05/23 01:42:54;;;;;;;17.90;12.10;;;;;;;-128.00;-1.00;-1.00;105441;1254;1004923;-76
2023/05/23 01:45:20;;;;;;;25.00;11.60;;;;;;;-128.00;-1.00;-1.00;105452;1256;1004489;-78
2023/05/23 01:47:48;;;;;;;19.60;12.40;;;;;;;-128.00;-1.00;-1.00;105467;1253;1003870;-77
2023/05/23 01:50:14;;;;;;;21.00;11.30;;;;;;;-128.00;-1.00;-1.00;105447;1254;1004822;-79
2023/05/23 01:52:41;;;;;;;16.90;11.20;;;;;;;-128.00;-1.00;-1.00;105671;1253;1004899;-79
2023/05/23 01:55:08;;;;;;;18.50;11.40;;;;;;;-128.00;-1.00;-1.00;105330;1254;1004173;-79
2023/05/23 01:57:35;;;;;;;17.60;11.60;;;;;;;-128.00;-1.00;-1.00;105445;1254;1003642;-78
2023/05/23 02:00:05;;;;;;;18.90;10.90;;;;;;;-128.00;-1.00;-1.00;105721;1254;1004117;-77
2023/05/23 02:02:34;;;;;;;18.70;11.90;;;;;;;-128.00;-1.00;-1.00;105587;1253;1063451;-77
2023/05/23 02:05:01;;;;;;;14.30;10.70;;;;;;;-128.00;-1.00;-1.00;105575;1254;1058279;-77
2023/05/23 02:07:27;;;;;;;18.50;11.20;;;;;;;-128.00;-1.00;-1.00;105676;1253;1004366;-79
2023/05/23 02:09:54;;;;;;;19.70;10.50;;;;;;;-128.00;-1.00;-1.00;105562;1254;1003869;-77
2023/05/23 02:12:20;;;;;;;29.90;13.50;;;;;;;-128.00;-1.00;-1.00;105700;1253;1004763;-78
2023/05/23 02:14:46;;;;;;;17.00;11.90;;;;;;;-128.00;-1.00;-1.00;105663;1253;1004769;-78
2023/05/23 02:17:15;;;;;;;19.20;11.40;;;;;;;-128.00;-1.00;-1.00;105459;1254;1005037;-76
2023/05/23 02:19:42;;;;;;;19.00;10.60;;;;;;;-128.00;-1.00;-1.00;105433;1253;1059931;-77
2023/05/23 02:22:08;;;;;;;21.80;11.90;;;;;;;-128.00;-1.00;-1.00;105469;1254;1004848;-79
2023/05/23 02:24:34;;;;;;;18.60;11.40;;;;;;;-128.00;-1.00;-1.00;105438;1254;1004170;-76
2023/05/23 02:27:01;;;;;;;15.40;10.60;;;;;;;-128.00;-1.00;-1.00;105442;1254;1004692;-79
2023/05/23 02:29:27;;;;;;;22.00;10.80;;;;;;;-128.00;-1.00;-1.00;105323;1254;1005044;-77
2023/05/23 02:31:54;;;;;;;17.10;10.60;;;;;;;-128.00;-1.00;-1.00;105450;1256;1003717;-79
2023/05/23 02:34:20;;;;;;;15.40;10.10;;;;;;;-128.00;-1.00;-1.00;105433;1253;1004012;-77
2023/05/23 02:36:46;;;;;;;17.90;11.60;;;;;;;-128.00;-1.00;-1.00;105464;1256;1004108;-80
2023/05/23 02:39:13;;;;;;;18.10;11.50;;;;;;;-128.00;-1.00;-1.00;105571;1254;1004293;-79
2023/05/23 02:41:39;;;;;;;18.20;10.50;;;;;;;-128.00;-1.00;-1.00;105401;1253;1004355;-79
2023/05/23 02:44:06;;;;;;;19.50;10.20;;;;;;;-128.00;-1.00;-1.00;105444;1254;1003974;-78
2023/05/23 02:46:32;;;;;;;18.10;11.60;;;;;;;-128.00;-1.00;-1.00;105679;1253;1003935;-79
2023/05/23 02:48:59;;;;;;;16.90;9.70;;;;;;;-128.00;-1.00;-1.00;105708;1253;1004064;-79
2023/05/23 02:51:25;;;;;;;16.90;11.20;;;;;;;-128.00;-1.00;-1.00;105697;1254;1003408;-77
2023/05/23 02:53:53;;;;;;;16.30;11.10;;;;;;;-128.00;-1.00;-1.00;105700;1254;1004167;-79
2023/05/23 02:56:21;;;;;;;15.50;10.40;;;;;;;-128.00;-1.00;-1.00;105667;1255;1003758;-77
2023/05/23 02:58:47;;;;;;;16.70;11.30;;;;;;;-128.00;-1.00;-1.00;105649;1256;1004514;-78
2023/05/23 03:01:14;;;;;;;19.90;10.80;;;;;;;-128.00;-1.00;-1.00;105513;1254;1004183;-76
2023/05/23 03:03:40;;;;;;;17.30;10.50;;;;;;;-128.00;-1.00;-1.00;105439;1254;1004251;-79
2023/05/23 03:06:09;;;;;;;15.00;9.70;;;;;;;-128.00;-1.00;-1.00;105445;1254;1004484;-76
2023/05/23 03:08:35;;;;;;;17.50;11.60;;;;;;;-128.00;-1.00;-1.00;105422;1253;1059089;-76
2023/05/23 03:11:02;;;;;;;17.80;11.90;;;;;;;-128.00;-1.00;-1.00;105320;1254;1003848;-79
2023/05/23 03:13:29;;;;;;;17.90;11.80;;;;;;;-128.00;-1.00;-1.00;105344;1254;1004903;-79
2023/05/23 03:15:55;;;;;;;15.50;10.60;;;;;;;-128.00;-1.00;-1.00;105428;1254;1003891;-79
2023/05/23 03:18:22;;;;;;;18.90;11.60;;;;;;;-128.00;-1.00;-1.00;105431;1254;1003453;-79
2023/05/23 03:20:48;;;;;;;15.60;10.70;;;;;;;-128.00;-1.00;-1.00;105433;1253;1003645;-79
2023/05/23 03:23:14;;;;;;;18.00;10.80;;;;;;;-128.00;-1.00;-1.00;105396;1256;1004923;-76
2023/05/23 03:25:41;;;;;;;18.20;11.60;;;;;;;-128.00;-1.00;-1.00;105430;1254;1004627;-79
2023/05/23 03:28:08;;;;;;;20.30;10.50;;;;;;;-128.00;-1.00;-1.00;105454;1252;1003508;-79
2023/05/23 03:30:34;;;;;;;20.40;12.00;;;;;;;-128.00;-1.00;-1.00;105346;1258;1006003;-79
2023/05/23 03:33:01;;;;;;;17.50;9.90;;;;;;;-128.00;-1.00;-1.00;105432;1254;1003983;-79
2023/05/23 03:35:28;;;;;;;14.80;9.50;;;;;;;-128.00;-1.00;-1.00;105425;1253;1004755;-76
2023/05/23 03:37:54;;;;;;;27.20;11.10;;;;;;;-128.00;-1.00;-1.00;105484;1256;1003877;-79
2023/05/23 03:40:21;;;;;;;16.90;10.60;;;;;;;-128.00;-1.00;-1.00;105439;1253;1004451;-79
2023/05/23 03:42:48;;;;;;;22.30;10.80;;;;;;;-128.00;-1.00;-1.00;105317;1253;1004469;-79
2023/05/23 03:45:15;;;;;;;19.10;11.80;;;;;;;-128.00;-1.00;-1.00;105318;1254;1004420;-79
2023/05/23 03:47:42;;;;;;;18.00;11.70;;;;;;;-128.00;-1.00;-1.00;105444;1256;1004918;-79
2023/05/23 03:50:09;;;;;;;16.50;9.90;;;;;;;-128.00;-1.00;-1.00;105439;1253;1003998;-79
2023/05/23 03:52:35;;;;;;;15.90;10.10;;;;;;;-128.00;-1.00;-1.00;105427;1255;1006216;-79
2023/05/23 03:55:02;;;;;;;15.60;10.30;;;;;;;-128.00;-1.00;-1.00;105425;1254;1004509;-79
2023/05/23 03:57:28;;;;;;;16.50;10.20;;;;;;;-128.00;-1.00;-1.00;105420;1257;1006341;-77
2023/05/23 03:59:54;;;;;;;16.20;10.30;;;;;;;-128.00;-1.00;-1.00;105403;1254;1004596;-77
2023/05/23 04:02:21;;;;;;;17.00;9.90;;;;;;;-128.00;-1.00;-1.00;105466;1254;1004330;-77
2023/05/23 04:04:47;;;;;;;18.90;10.20;;;;;;;-128.00;-1.00;-1.00;105426;1253;1004387;-79
2023/05/23 04:07:14;;;;;;;15.50;8.70;;;;;;;-128.00;-1.00;-1.00;105431;1254;1003731;-80
2023/05/23 04:09:41;;;;;;;18.70;10.20;;;;;;;-128.00;-1.00;-1.00;105397;1256;1003902;-77
2023/05/23 04:12:08;;;;;;;14.70;10.60;;;;;;;-128.00;-1.00;-1.00;105410;1254;1004419;-79
2023/05/23 04:14:34;;;;;;;15.00;9.70;;;;;;;-128.00;-1.00;-1.00;105463;1256;1005092;-76
2023/05/23 04:17:01;;;;;;;14.50;10.40;;;;;;;-128.00;-1.00;-1.00;105441;1253;1003932;-79
2023/05/23 04:19:27;;;;;;;14.90;10.60;;;;;;;-128.00;-1.00;-1.00;105416;1254;1003895;-79
2023/05/23 04:21:54;;;;;;;17.30;10.80;;;;;;;-128.00;-1.00;-1.00;105455;1253;1004985;-79
2023/05/23 04:24:20;;;;;;;17.30;9.90;;;;;;;-128.00;-1.00;-1.00;105393;1254;1003968;-79
2023/05/23 04:26:46;;;;;;;16.40;9.50;;;;;;;-128.00;-1.00;-1.00;105447;1254;1004688;-79
2023/05/23 04:29:13;;;;;;;18.90;10.20;;;;;;;-128.00;-1.00;-1.00;105343;1254;1004477;-79
2023/05/23 04:31:40;;;;;;;15.50;9.40;;;;;;;-128.00;-1.00;-1.00;105439;1253;1003776;-77
2023/05/23 04:34:06;;;;;;;15.10;9.80;;;;;;;-128.00;-1.00;-1.00;105431;1255;1004640;-80
2023/05/23 04:36:36;;;;;;;16.40;9.70;;;;;;;-128.00;-1.00;-1.00;105421;1254;1004976;-78
2023/05/23 04:39:04;;;;;;;14.20;9.40;;;;;;;-128.00;-1.00;-1.00;105442;1253;1048320;-78
2023/05/23 04:41:31;;;;;;;15.70;9.60;;;;;;;-128.00;-1.00;-1.00;105453;1257;1003753;-77
2023/05/23 04:43:57;;;;;;;16.60;9.70;;;;;;;-128.00;-1.00;-1.00;105318;1253;1004466;-77
2023/05/23 04:46:27;;;;;;;16.20;9.10;;;;;;;-128.00;-1.00;-1.00;105447;1253;1005003;-77
2023/05/23 04:48:53;;;;;;;13.90;9.90;;;;;;;-128.00;-1.00;-1.00;105426;1254;1046303;-77
2023/05/23 04:51:20;;;;;;;13.60;9.60;;;;;;;-128.00;-1.00;-1.00;105388;1254;1003719;-77
2023/05/23 04:53:49;;;;;;;18.50;10.50;;;;;;;-128.00;-1.00;-1.00;105381;1254;1003526;-77
2023/05/23 04:56:16;;;;;;;14.50;9.00;;;;;;;-128.00;-1.00;-1.00;105459;1254;1059344;-78
2023/05/23 04:58:44;;;;;;;15.30;10.30;;;;;;;-128.00;-1.00;-1.00;105422;1253;1005262;-79
2023/05/23 05:01:10;;;;;;;23.90;11.20;;;;;;;-128.00;-1.00;-1.00;105378;1253;1004286;-77
2023/05/23 05:03:37;;;;;;;21.80;11.70;;;;;;;-128.00;-1.00;-1.00;105464;1254;1004793;-80
2023/05/23 05:06:04;;;;;;;21.90;10.80;;;;;;;-128.00;-1.00;-1.00;105442;1253;1004925;-79
2023/05/23 05:08:31;;;;;;;20.90;10.20;;;;;;;-128.00;-1.00;-1.00;105443;1253;1004070;-77
2023/05/23 05:10:57;;;;;;;13.50;9.20;;;;;;;-128.00;-1.00;-1.00;105324;1254;1006183;-77
2023/05/23 05:13:24;;;;;;;10.90;8.80;;;;;;;-128.00;-1.00;-1.00;105225;1254;1005243;-80
2023/05/23 05:15:51;;;;;;;9.70;7.90;;;;;;;-128.00;-1.00;-1.00;105484;1256;1004110;-79
2023/05/23 05:18:18;;;;;;;12.50;8.70;;;;;;;-128.00;-1.00;-1.00;105450;1254;1004307;-79
2023/05/23 05:20:44;;;;;;;14.20;8.60;;;;;;;-128.00;-1.00;-1.00;105449;1254;1003917;-77
2023/05/23 05:23:11;;;;;;;13.80;9.40;;;;;;;-128.00;-1.00;-1.00;105453;1253;1004420;-79
2023/05/23 05:25:40;;;;;;;13.60;8.70;;;;;;;-128.00;-1.00;-1.00;105373;1254;1004374;-77
2023/05/23 05:28:06;;;;;;;12.40;8.40;;;;;;;-128.00;-1.00;-1.00;105459;1253;1047540;-80
2023/05/23 05:30:34;;;;;;;14.50;8.70;;;;;;;-128.00;-1.00;-1.00;105331;1254;1004433;-79
2023/05/23 05:33:03;;;;;;;17.70;9.60;;;;;;;-128.00;-1.00;-1.00;105221;1254;1004577;-77
2023/05/23 05:35:31;;;;;;;15.40;8.50;;;;;;;-128.00;-1.00;-1.00;105371;1254;1059235;-77
2023/05/23 05:37:58;;;;;;;17.40;8.60;;;;;;;-128.00;-1.00;-1.00;105312;1254;1006014;-77
2023/05/23 05:40:24;;;;;;;15.10;8.60;;;;;;;-128.00;-1.00;-1.00;105367;1253;1004417;-79
2023/05/23 05:42:51;;;;;;;18.30;8.00;;;;;;;-128.00;-1.00;-1.00;105275;1254;1005838;-79
2023/05/23 05:45:17;;;;;;;13.20;8.40;;;;;;;-128.00;-1.00;-1.00;105362;1257;1005513;-80
2023/05/23 05:47:44;;;;;;;13.80;9.20;;;;;;;-128.00;-1.00;-1.00;105447;1254;1004611;-79
2023/05/23 05:50:11;;;;;;;14.20;8.10;;;;;;;-128.00;-1.00;-1.00;105482;1254;1003830;-77
2023/05/23 05:52:38;;;;;;;13.60;9.10;;;;;;;-128.00;-1.00;-1.00;105512;1253;1005008;-79
2023/05/23 05:55:06;;;;;;;15.70;8.30;;;;;;;-128.00;-1.00;-1.00;105200;1254;1005957;-79
2023/05/23 05:57:32;;;;;;;11.60;7.90;;;;;;;-128.00;-1.00;-1.00;105437;1254;1005662;-80
2023/05/23 05:59:59;;;;;;;13.90;8.10;;;;;;;-128.00;-1.00;-1.00;105457;1254;1003695;-77
2023/05/23 06:02:25;;;;;;;12.70;9.30;;;;;;;-128.00;-1.00;-1.00;105414;1253;1004756;-80
2023/05/23 06:04:52;;;;;;;16.00;9.40;;;;;;;-128.00;-1.00;-1.00;105467;1253;1006087;-80
2023/05/23 06:07:18;;;;;;;18.90;8.50;;;;;;;-128.00;-1.00;-1.00;105395;1254;1005869;-77
2023/05/23 06:09:45;;;;;;;10.30;7.90;;;;;;;-128.00;-1.00;-1.00;105426;1254;1005343;-79
2023/05/23 06:12:11;;;;;;;13.00;9.50;;;;;;;-128.00;-1.00;-1.00;105421;1253;1003645;-80
2023/05/23 06:14:37;;;;;;;12.40;7.70;;;;;;;-128.00;-1.00;-1.00;105474;1253;1004451;-78
2023/05/23 06:17:04;;;;;;;12.50;8.10;;;;;;;-128.00;-1.00;-1.00;105405;1254;1006055;-80
2023/05/23 06:19:30;;;;;;;8.40;6.30;;;;;;;-128.00;-1.00;-1.00;105424;1254;1004526;-77
2023/05/23 06:21:56;;;;;;;10.50;6.10;;;;;;;-128.00;-1.00;-1.00;105491;1254;1003941;-80
2023/05/23 06:24:23;;;;;;;15.80;7.40;;;;;;;-128.00;-1.00;-1.00;105559;1254;1004863;-77
2023/05/23 06:26:49;;;;;;;12.10;6.50;;;;;;;-128.00;-1.00;-1.00;105531;1252;1003603;-80
2023/05/23 06:29:16;;;;;;;8.30;6.40;;;;;;;-128.00;-1.00;-1.00;105560;1254;1004289;-78
2023/05/23 06:31:42;;;;;;;10.50;6.20;;;;;;;-128.00;-1.00;-1.00;105431;1254;1057132;-77
2023/05/23 06:34:08;;;;;;;12.40;6.80;;;;;;;-128.00;-1.00;-1.00;105408;1256;1005235;-77
2023/05/23 06:36:35;;;;;;;11.20;6.90;;;;;;;-128.00;-1.00;-1.00;105433;1254;1004601;-78
2023/05/23 06:39:01;;;;;;;11.30;6.20;;;;;;;-128.00;-1.00;-1.00;105222;1254;1003920;-77
2023/05/23 06:41:27;;;;;;;12.00;5.60;;;;;;;-128.00;-1.00;-1.00;105188;1253;1004134;-77
2023/05/23 06:43:54;;;;;;;10.40;6.80;;;;;;;-128.00;-1.00;-1.00;105256;1253;1004126;-80
2023/05/23 06:46:20;;;;;;;13.30;7.30;;;;;;;-128.00;-1.00;-1.00;105386;1254;1005275;-77
2023/05/23 06:48:47;;;;;;;14.20;6.40;;;;;;;-128.00;-1.00;-1.00;105287;1254;1005084;-80
2023/05/23 06:51:13;;;;;;;9.50;6.80;;;;;;;-128.00;-1.00;-1.00;105159;1254;1004210;-77
2023/05/23 06:53:40;;;;;;;10.90;6.70;;;;;;;-128.00;-1.00;-1.00;105208;1254;1004476;-77
2023/05/23 06:56:06;;;;;;;11.60;6.70;;;;;;;-128.00;-1.00;-1.00;105370;1254;1058480;-78
2023/05/23 06:58:33;;;;;;;10.30;5.80;;;;;;;-128.00;-1.00;-1.00;105442;1254;1004291;-77
2023/05/23 07:00:59;;;;;;;10.60;7.30;;;;;;;-128.00;-1.00;-1.00;105399;1254;1004323;-78
2023/05/23 07:03:26;;;;;;;9.00;5.70;;;;;;;-128.00;-1.00;-1.00;105392;1253;1005686;-78
2023/05/23 07:05:53;;;;;;;9.80;5.60;;;;;;;-128.00;-1.00;-1.00;105454;1254;1004593;-80
2023/05/23 07:08:19;;;;;;;9.70;5.70;;;;;;;-128.00;-1.00;-1.00;105438;1253;1003684;-78
2023/05/23 07:10:46;;;;;;;9.50;6.10;;;;;;;-128.00;-1.00;-1.00;105349;1253;1005194;-78
2023/05/23 07:13:12;;;;;;;10.20;5.70;;;;;;;-128.00;-1.00;-1.00;105406;1253;1004918;-82
2023/05/23 07:15:38;;;;;;;7.70;5.10;;;;;;;-128.00;-1.00;-1.00;105424;1254;1004421;-80
2023/05/23 07:18:05;;;;;;;8.70;5.80;;;;;;;-128.00;-1.00;-1.00;105456;1253;1003968;-77
2023/05/23 07:20:32;;;;;;;15.10;7.50;;;;;;;-128.00;-1.00;-1.00;105372;1254;1004048;-81
2023/05/23 07:22:59;;;;;;;13.00;7.40;;;;;;;-128.00;-1.00;-1.00;105412;1252;1004711;-81
2023/05/23 07:25:26;;;;;;;11.70;6.10;;;;;;;-128.00;-1.00;-1.00;105429;1254;1004594;-78
2023/05/23 07:27:53;;;;;;;8.10;5.70;;;;;;;-128.00;-1.00;-1.00;105342;1253;1005231;-78
2023/05/23 07:30:21;;;;;;;11.90;6.60;;;;;;;-128.00;-1.00;-1.00;105464;1254;1003781;-81
2023/05/23 07:32:48;;;;;;;8.60;5.20;;;;;;;-128.00;-1.00;-1.00;105424;1253;1005549;-78
2023/05/23 07:35:14;;;;;;;13.70;4.90;;;;;;;-128.00;-1.00;-1.00;105422;1253;1005010;-80
2023/05/23 07:37:41;;;;;;;7.30;5.00;;;;;;;-128.00;-1.00;-1.00;105461;1253;1003899;-81
2023/05/23 07:40:10;;;;;;;7.50;4.60;;;;;;;-128.00;-1.00;-1.00;105281;1254;1005207;-78
2023/05/23 07:42:37;;;;;;;6.50;4.50;;;;;;;-128.00;-1.00;-1.00;105505;1254;1057869;-81
2023/05/23 07:45:03;;;;;;;9.00;4.70;;;;;;;-128.00;-1.00;-1.00;105508;1254;1003880;-78
2023/05/23 07:47:30;;;;;;;6.10;3.90;;;;;;;-128.00;-1.00;-1.00;105406;1252;1005062;-78
2023/05/23 07:49:56;;;;;;;8.80;4.50;;;;;;;-128.00;-1.00;-1.00;105370;1253;1003309;-78
2023/05/23 07:52:23;;;;;;;7.80;5.20;;;;;;;-128.00;-1.00;-1.00;105360;1253;1004822;-79
2023/05/23 07:54:49;;;;;;;11.50;5.80;;;;;;;-128.00;-1.00;-1.00;105459;1253;1004487;-82
2023/05/23 07:57:15;;;;;;;6.00;4.80;;;;;;;-128.00;-1.00;-1.00;105436;1253;1004364;-81
2023/05/23 07:59:42;;;;;;;8.20;5.40;;;;;;;-128.00;-1.00;-1.00;105428;1254;1004156;-82
2023/05/23 08:02:08;;;;;;;10.80;5.00;;;;;;;-128.00;-1.00;-1.00;105466;1252;1003828;-82
2023/05/23 08:04:34;;;;;;;7.90;5.50;;;;;;;-128.00;-1.00;-1.00;105445;1253;1005715;-78
2023/05/23 08:07:01;;;;;;;9.80;5.20;;;;;;;-128.00;-1.00;-1.00;105495;1253;1003717;-82
2023/05/23 08:09:27;;;;;;;6.50;4.80;;;;;;;-128.00;-1.00;-1.00;105416;1253;1005027;-81
2023/05/23 08:11:54;;;;;;;11.10;5.90;;;;;;;-128.00;-1.00;-1.00;105486;1252;1005268;-82
2023/05/23 08:14:21;;;;;;;10.50;6.60;;;;;;;-128.00;-1.00;-1.00;105408;1253;1061807;-79
2023/05/23 08:16:47;;;;;;;11.80;7.20;;;;;;;-128.00;-1.00;-1.00;105400;1253;1004306;-79
2023/05/23 08:19:14;;;;;;;7.50;4.90;;;;;;;-128.00;-1.00;-1.00;105363;1253;1003710;-79
2023/05/23 08:21:41;;;;;;;7.90;4.30;;;;;;;-128.00;-1.00;-1.00;105406;1253;1004371;-81
2023/05/23 08:24:07;;;;;;;8.30;4.90;;;;;;;-128.00;-1.00;-1.00;105435;1253;1004062;-81
2023/05/23 08:26:35;;;;;;;9.40;4.60;;;;;;;-128.00;-1.00;-1.00;105475;1253;1005295;-79
2023/05/23 08:29:01;;;;;;;5.60;3.80;;;;;;;-128.00;-1.00;-1.00;105444;1256;1005780;-81
2023/05/23 08:31:29;;;;;;;12.90;5.40;;;;;;;-128.00;-1.00;-1.00;105503;1252;1004238;-79
2023/05/23 08:33:56;;;;;;;6.80;4.70;;;;;;;-128.00;-1.00;-1.00;105331;1254;1004794;-81
2023/05/23 08:36:22;;;;;;;5.10;4.10;;;;;;;-128.00;-1.00;-1.00;105492;1253;1005845;-82
2023/05/23 08:38:49;;;;;;;8.90;5.40;;;;;;;-128.00;-1.00;-1.00;105459;1253;1005169;-82
2023/05/23 08:41:21;;;;;;;10.10;4.30;;;;;;;-128.00;-1.00;-1.00;105313;1253;1004239;-79
2023/05/23 08:43:48;;;;;;;6.60;4.10;;;;;;;-128.00;-1.00;-1.00;105441;1252;1060179;-79
2023/05/23 08:46:14;;;;;;;5.30;4.00;;;;;;;-128.00;-1.00;-1.00;105459;1253;1005560;-79
2023/05/23 08:48:41;;;;;;;6.00;3.90;;;;;;;-128.00;-1.00;-1.00;105423;1253;1004658;-82
2023/05/23 08:51:09;;;;;;;5.30;4.00;;;;;;;-128.00;-1.00;-1.00;105417;1254;1004179;-82
2023/05/23 08:53:36;;;;;;;7.70;4.90;;;;;;;-128.00;-1.00;-1.00;105408;1254;1004278;-82
2023/05/23 08:56:02;;;;;;;6.50;4.00;;;;;;;-128.00;-1.00;-1.00;105210;1253;1005489;-82
2023/05/23 08:58:29;;;;;;;8.90;3.50;;;;;;;-128.00;-1.00;-1.00;105427;1253;1004510;-82
2023/05/23 09:00:56;;;;;;;6.50;3.90;;;;;;;-128.00;-1.00;-1.00;105507;1254;1003835;-82
2023/05/23 09:03:23;;;;;;;10.70;4.20;;;;;;;-128.00;-1.00;-1.00;105327;1253;1004031;-79
2023/05/23 09:05:49;;;;;;;11.80;4.40;;;;;;;-128.00;-1.00;-1.00;105247;1254;1004222;-82
2023/05/23 09:08:18;;;;;;;10.40;4.00;;;;;;;-128.00;-1.00;-1.00;105300;1253;1004541;-79
2023/05/23 09:10:44;;;;;;;8.50;4.10;;;;;;;-128.00;-1.00;-1.00;105467;1253;1005562;-82
2023/05/23 09:13:11;;;;;;;11.60;4.10;;;;;;;-128.00;-1.00;-1.00;105447;1253;1003393;-82
2023/05/23 09:15:37;;;;;;;6.60;4.00;;;;;;;-128.00;-1.00;-1.00;105448;1254;1004530;-82
2023/05/23 09:18:04;;;;;;;7.90;3.70;;;;;;;-128.00;-1.00;-1.00;105267;1254;1004534;-82
2023/05/23 09:20:30;;;;;;;6.20;3.70;;;;;;;-128.00;-1.00;-1.00;105465;1252;1004004;-79
2023/05/23 09:22:57;;;;;;;6.20;4.20;;;;;;;-128.00;-1.00;-1.00;105401;1253;1004728;-79
2023/05/23 09:25:23;;;;;;;4.70;3.40;;;;;;;-128.00;-1.00;-1.00;105443;1253;1004919;-81
2023/05/23 09:27:51;;;;;;;5.90;4.00;;;;;;;-128.00;-1.00;-1.00;105417;1253;1004628;-79
2023/05/23 09:30:17;;;;;;;7.10;3.60;;;;;;;-128.00;-1.00;-1.00;105455;1253;1004270;-82
2023/05/23 09:32:59;;;;;;;6.20;4.30;;;;;;;-128.00;-1.00;-1.00;105394;1253;1004284;-79
2023/05/23 09:35:27;;;;;;;6.20;3.50;;;;;;;-128.00;-1.00;-1.00;105124;1253;1044653;-81
2023/05/23 09:37:55;;;;;;;8.50;3.60;;;;;;;-128.00;-1.00;-1.00;105335;1253;1004740;-79
2023/05/23 09:40:21;;;;;;;6.90;4.30;;;;;;;-128.00;-1.00;-1.00;105129;1253;1003990;-83
2023/05/23 09:42:49;;;;;;;5.50;3.60;;;;;;;-128.00;-1.00;-1.00;105391;1252;1004255;-82
2023/05/23 09:45:16;;;;;;;5.30;3.30;;;;;;;-128.00;-1.00;-1.00;105457;1253;1003915;-79
2023/05/23 09:47:52;;;;;;;10.40;4.00;;;;;;;-128.00;-1.00;-1.00;105263;1253;1005216;-82
2023/05/23 09:50:19;;;;;;;4.50;4.00;;;;;;;-128.00;-1.00;-1.00;105303;1253;1047184;-80
2023/05/23 09:52:46;;;;;;;5.80;4.20;;;;;;;-128.00;-1.00;-1.00;105246;1253;1005213;-82
2023/05/23 09:55:12;;;;;;;7.50;3.90;;;;;;;-128.00;-1.00;-1.00;105304;1254;1003815;-82
2023/05/23 09:57:40;;;;;;;7.60;3.90;;;;;;;-128.00;-1.00;-1.00;105146;1254;1004631;-82
2023/05/23 10:00:13;;;;;;;6.30;3.30;;;;;;;-128.00;-1.00;-1.00;105345;1253;1003453;-80
2023/05/23 10:02:56;;;;;;;6.40;3.90;;;;;;;-128.00;-1.00;-1.00;105234;1253;1048309;-79
2023/05/23 10:05:41;;;;;;;11.70;4.40;;;;;;;-128.00;-1.00;-1.00;105095;1257;1062234;-79
2023/05/23 10:08:18;;;;;;;7.20;3.30;;;;;;;-128.00;-1.00;-1.00;105443;1252;1059352;-80
2023/05/23 10:10:57;;;;;;;5.50;3.80;;;;;;;-128.00;-1.00;-1.00;105440;1253;1059309;-82
2023/05/23 10:13:25;;;;;;;7.10;3.90;;;;;;;-128.00;-1.00;-1.00;105237;1253;1046433;-82
2023/05/23 10:15:54;;;;;;;5.60;3.80;;;;;;;-128.00;-1.00;-1.00;105295;1253;1003995;-82
2023/05/23 10:18:22;;;;;;;9.90;4.10;;;;;;;-128.00;-1.00;-1.00;105371;1252;1064639;-80
2023/05/23 10:20:49;;;;;;;4.30;3.70;;;;;;;-128.00;-1.00;-1.00;105350;1253;1004317;-79
2023/05/23 10:23:15;;;;;;;6.10;4.00;;;;;;;-128.00;-1.00;-1.00;105274;1254;1005983;-82
2023/05/23 10:25:42;;;;;;;3.90;3.20;;;;;;;-128.00;-1.00;-1.00;105461;1253;1004099;-80
2023/05/23 10:28:09;;;;;;;5.60;3.20;;;;;;;-128.00;-1.00;-1.00;105168;1254;1005797;-80
2023/05/23 10:30:36;;;;;;;7.80;3.60;;;;;;;-128.00;-1.00;-1.00;105334;1253;1004188;-80
2023/05/23 10:33:02;;;;;;;7.20;3.20;;;;;;;-128.00;-1.00;-1.00;105137;1256;1004115;-82
2023/05/23 10:35:55;;;;;;;7.10;3.60;;;;;;;-128.00;-1.00;-1.00;105357;1253;1003954;-82
2023/05/23 10:38:50;;;;;;;4.80;3.30;;;;;;;-128.00;-1.00;-1.00;105119;1253;1046186;-82
2023/05/23 10:41:25;;;;;;;7.90;3.70;;;;;;;-128.00;-1.00;-1.00;105143;1253;1047973;-82
2023/05/23 10:43:56;;;;;;;15.60;3.90;;;;;;;-128.00;-1.00;-1.00;105233;1253;1061092;-80
2023/05/23 10:46:22;;;;;;;5.70;3.20;;;;;;;-128.00;-1.00;-1.00;105013;1254;1058113;-80
2023/05/23 10:48:53;;;;;;;5.80;3.40;;;;;;;-128.00;-1.00;-1.00;105302;1252;1004764;-82
2023/05/23 10:51:19;;;;;;;8.10;4.00;;;;;;;-128.00;-1.00;-1.00;105214;1255;1045002;-82
2023/05/23 10:53:48;;;;;;;5.60;3.40;;;;;;;-128.00;-1.00;-1.00;104910;1254;1004734;-83
2023/05/23 10:56:22;;;;;;;5.90;3.70;;;;;;;-128.00;-1.00;-1.00;104947;1254;1004637;-82
2023/05/23 10:58:53;;;;;;;5.20;3.50;;;;;;;-128.00;-1.00;-1.00;105239;1253;1057682;-80
2023/05/23 11:01:20;;;;;;;3.70;3.20;;;;;;;-128.00;-1.00;-1.00;105444;1253;1059201;-80
2023/05/23 11:03:46;;;;;;;6.00;2.90;;;;;;;-128.00;-1.00;-1.00;105440;1253;1004636;-82
2023/05/23 11:06:37;;;;;;;5.10;3.50;;;;;;;-128.00;-1.00;-1.00;105444;1253;1004105;-80
2023/05/23 11:09:18;;;;;;;6.80;4.00;;;;;;;-128.00;-1.00;-1.00;105327;1253;1061916;-80
2023/05/23 11:11:51;;;;;;;6.60;3.60;;;;;;;-128.00;-1.00;-1.00;105277;1253;1058171;-80